sensor_id;sensor_type;location;lat;lon;timestamp;P1;durP1;ratioP1;P2;durP2;ratioP2
5060;SDS011;2549;52.128;21.068;2022-10-16T00:00:54;16.50;;;10.33;;
5060;SDS011;2549;52.128;21.068;2022-10-16T00:03:21;15.73;;;11.03;;
5060;SDS011;2549;52.128;21.068;2022-10-16T00:05:54;17.93;;;10.93;;
5060;SDS011;2549;52.128;21.068;2022-10-16T00:08:26;16.30;;;10.93;;
5060;SDS011;2549;52.128;21.068;2022-10-16T00:10:58;15.90;;;11.27;;
5060;SDS011;2549;52.128;21.068;2022-10-16T00:13:35;19.80;;;12.10;;
5060;SDS011;2549;52.128;21.068;2022-10-16T00:16:03;17.73;;;11.37;;
5060;SDS011;2549;52.128;21.068;2022-10-16T00:18:30;17.87;;;11.40;;
5060;SDS011;2549;52.128;21.068;2022-10-16T00:21:01;20.60;;;13.13;;
5060;SDS011;2549;52.128;21.068;2022-10-16T00:23:32;20.77;;;12.20;;
5060;SDS011;2549;52.128;21.068;2022-10-16T00:26:01;20.93;;;12.47;;
5060;SDS011;2549;52.128;21.068;2022-10-16T00:28:29;22.27;;;12.03;;
5060;SDS011;2549;52.128;21.068;2022-10-16T00:30:57;18.93;;;12.30;;
5060;SDS011;2549;52.128;21.068;2022-10-16T00:33:24;20.23;;;12.70;;
5060;SDS011;2549;52.128;21.068;2022-10-16T00:35:51;24.00;;;12.40;;
5060;SDS011;2549;52.128;21.068;2022-10-16T00:38:18;20.73;;;12.10;;
5060;SDS011;2549;52.128;21.068;2022-10-16T00:40:45;21.53;;;12.83;;
5060;SDS011;2549;52.128;21.068;2022-10-16T00:43:12;25.10;;;13.77;;
5060;SDS011;2549;52.128;21.068;2022-10-16T00:46:03;17.83;;;11.70;;
5060;SDS011;2549;52.128;21.068;2022-10-16T00:48:36;16.40;;;12.77;;
5060;SDS011;2549;52.128;21.068;2022-10-16T00:51:04;24.50;;;14.03;;
5060;SDS011;2549;52.128;21.068;2022-10-16T00:53:32;20.47;;;12.40;;
5060;SDS011;2549;52.128;21.068;2022-10-16T00:55:59;22.80;;;12.37;;
5060;SDS011;2549;52.128;21.068;2022-10-16T00:58:27;22.80;;;13.43;;
5060;SDS011;2549;52.128;21.068;2022-10-16T01:00:54;22.10;;;13.00;;
5060;SDS011;2549;52.128;21.068;2022-10-16T01:03:22;19.50;;;12.47;;
5060;SDS011;2549;52.128;21.068;2022-10-16T01:11:57;21.17;;;13.77;;
5060;SDS011;2549;52.128;21.068;2022-10-16T01:17:06;20.30;;;12.57;;
5060;SDS011;2549;52.128;21.068;2022-10-16T01:19:49;21.37;;;14.13;;
5060;SDS011;2549;52.128;21.068;2022-10-16T01:22:30;21.23;;;13.97;;
5060;SDS011;2549;52.128;21.068;2022-10-16T01:25:16;21.60;;;12.63;;
5060;SDS011;2549;52.128;21.068;2022-10-16T01:27:52;26.33;;;12.77;;
5060;SDS011;2549;52.128;21.068;2022-10-16T01:30:26;19.67;;;12.00;;
5060;SDS011;2549;52.128;21.068;2022-10-16T01:32:57;20.33;;;12.90;;
5060;SDS011;2549;52.128;21.068;2022-10-16T01:35:36;19.37;;;12.23;;
5060;SDS011;2549;52.128;21.068;2022-10-16T01:38:10;25.33;;;13.50;;
5060;SDS011;2549;52.128;21.068;2022-10-16T01:40:44;21.90;;;14.30;;
5060;SDS011;2549;52.128;21.068;2022-10-16T01:43:17;24.30;;;13.67;;
5060;SDS011;2549;52.128;21.068;2022-10-16T01:45:47;34.20;;;14.23;;
5060;SDS011;2549;52.128;21.068;2022-10-16T01:48:16;24.60;;;13.80;;
5060;SDS011;2549;52.128;21.068;2022-10-16T01:50:48;21.90;;;13.40;;
5060;SDS011;2549;52.128;21.068;2022-10-16T01:53:23;23.67;;;12.87;;
5060;SDS011;2549;52.128;21.068;2022-10-16T01:55:52;26.17;;;13.90;;
5060;SDS011;2549;52.128;21.068;2022-10-16T01:58:20;20.10;;;13.80;;
5060;SDS011;2549;52.128;21.068;2022-10-16T02:00:49;19.00;;;13.57;;
5060;SDS011;2549;52.128;21.068;2022-10-16T02:03:18;39.03;;;14.23;;
5060;SDS011;2549;52.128;21.068;2022-10-16T02:05:47;23.17;;;13.77;;
5060;SDS011;2549;52.128;21.068;2022-10-16T02:08:20;24.60;;;13.73;;
5060;SDS011;2549;52.128;21.068;2022-10-16T02:10:49;21.43;;;14.10;;
5060;SDS011;2549;52.128;21.068;2022-10-16T02:13:17;17.40;;;12.80;;
5060;SDS011;2549;52.128;21.068;2022-10-16T02:15:49;24.40;;;14.60;;
5060;SDS011;2549;52.128;21.068;2022-10-16T02:18:16;22.83;;;13.13;;
5060;SDS011;2549;52.128;21.068;2022-10-16T02:20:53;26.13;;;14.47;;
5060;SDS011;2549;52.128;21.068;2022-10-16T02:26:12;23.90;;;14.03;;
5060;SDS011;2549;52.128;21.068;2022-10-16T02:28:46;20.73;;;13.60;;
5060;SDS011;2549;52.128;21.068;2022-10-16T02:31:20;22.33;;;13.50;;
5060;SDS011;2549;52.128;21.068;2022-10-16T02:33:54;24.40;;;12.83;;
5060;SDS011;2549;52.128;21.068;2022-10-16T02:36:25;28.13;;;14.77;;
5060;SDS011;2549;52.128;21.068;2022-10-16T02:38:53;29.43;;;14.30;;
5060;SDS011;2549;52.128;21.068;2022-10-16T02:41:21;21.97;;;12.67;;
5060;SDS011;2549;52.128;21.068;2022-10-16T02:43:49;26.30;;;14.20;;
5060;SDS011;2549;52.128;21.068;2022-10-16T02:46:16;23.23;;;13.73;;
5060;SDS011;2549;52.128;21.068;2022-10-16T02:48:44;23.40;;;14.40;;
5060;SDS011;2549;52.128;21.068;2022-10-16T02:51:22;21.37;;;12.77;;
5060;SDS011;2549;52.128;21.068;2022-10-16T02:54:02;21.10;;;13.73;;
5060;SDS011;2549;52.128;21.068;2022-10-16T02:56:29;19.23;;;13.87;;
5060;SDS011;2549;52.128;21.068;2022-10-16T02:58:57;25.63;;;14.10;;
5060;SDS011;2549;52.128;21.068;2022-10-16T03:01:24;23.83;;;14.37;;
5060;SDS011;2549;52.128;21.068;2022-10-16T03:03:51;18.07;;;12.73;;
5060;SDS011;2549;52.128;21.068;2022-10-16T03:06:18;23.53;;;13.03;;
5060;SDS011;2549;52.128;21.068;2022-10-16T03:08:45;20.93;;;13.07;;
5060;SDS011;2549;52.128;21.068;2022-10-16T03:11:11;20.87;;;13.50;;
5060;SDS011;2549;52.128;21.068;2022-10-16T03:13:38;22.43;;;14.43;;
5060;SDS011;2549;52.128;21.068;2022-10-16T03:16:05;20.27;;;13.63;;
5060;SDS011;2549;52.128;21.068;2022-10-16T03:18:32;20.43;;;13.30;;
5060;SDS011;2549;52.128;21.068;2022-10-16T03:20:59;20.23;;;13.00;;
5060;SDS011;2549;52.128;21.068;2022-10-16T03:23:25;25.67;;;13.50;;
5060;SDS011;2549;52.128;21.068;2022-10-16T03:25:52;21.87;;;13.03;;
5060;SDS011;2549;52.128;21.068;2022-10-16T03:28:20;19.20;;;13.10;;
5060;SDS011;2549;52.128;21.068;2022-10-16T03:30:47;21.17;;;12.67;;
5060;SDS011;2549;52.128;21.068;2022-10-16T03:33:14;18.70;;;12.93;;
5060;SDS011;2549;52.128;21.068;2022-10-16T03:35:40;17.77;;;12.57;;
5060;SDS011;2549;52.128;21.068;2022-10-16T03:38:07;25.43;;;12.70;;
5060;SDS011;2549;52.128;21.068;2022-10-16T03:40:34;20.10;;;11.80;;
5060;SDS011;2549;52.128;21.068;2022-10-16T03:43:01;20.57;;;13.83;;
5060;SDS011;2549;52.128;21.068;2022-10-16T03:45:28;18.33;;;12.03;;
5060;SDS011;2549;52.128;21.068;2022-10-16T03:47:55;16.07;;;11.67;;
5060;SDS011;2549;52.128;21.068;2022-10-16T03:50:21;19.67;;;12.23;;
5060;SDS011;2549;52.128;21.068;2022-10-16T03:52:48;25.80;;;12.50;;
5060;SDS011;2549;52.128;21.068;2022-10-16T03:55:15;20.77;;;12.90;;
5060;SDS011;2549;52.128;21.068;2022-10-16T03:57:42;21.63;;;11.60;;
5060;SDS011;2549;52.128;21.068;2022-10-16T04:00:09;15.83;;;11.47;;
5060;SDS011;2549;52.128;21.068;2022-10-16T04:02:36;18.87;;;12.67;;
5060;SDS011;2549;52.128;21.068;2022-10-16T04:05:04;24.10;;;12.03;;
5060;SDS011;2549;52.128;21.068;2022-10-16T04:07:31;22.80;;;11.37;;
5060;SDS011;2549;52.128;21.068;2022-10-16T04:09:58;17.47;;;11.50;;
5060;SDS011;2549;52.128;21.068;2022-10-16T04:12:25;19.17;;;12.00;;
5060;SDS011;2549;52.128;21.068;2022-10-16T04:14:53;21.63;;;11.77;;
5060;SDS011;2549;52.128;21.068;2022-10-16T04:17:19;17.27;;;10.70;;
5060;SDS011;2549;52.128;21.068;2022-10-16T04:19:46;18.17;;;11.97;;
5060;SDS011;2549;52.128;21.068;2022-10-16T04:22:13;16.70;;;11.30;;
5060;SDS011;2549;52.128;21.068;2022-10-16T04:24:40;20.23;;;11.73;;
5060;SDS011;2549;52.128;21.068;2022-10-16T04:27:07;17.83;;;11.53;;
5060;SDS011;2549;52.128;21.068;2022-10-16T04:29:34;17.17;;;11.20;;
5060;SDS011;2549;52.128;21.068;2022-10-16T04:32:00;17.07;;;12.10;;
5060;SDS011;2549;52.128;21.068;2022-10-16T04:34:27;19.30;;;12.37;;
5060;SDS011;2549;52.128;21.068;2022-10-16T04:36:54;17.83;;;11.23;;
5060;SDS011;2549;52.128;21.068;2022-10-16T04:39:21;15.30;;;10.77;;
5060;SDS011;2549;52.128;21.068;2022-10-16T04:41:48;20.13;;;10.67;;
5060;SDS011;2549;52.128;21.068;2022-10-16T04:44:14;15.40;;;11.20;;
5060;SDS011;2549;52.128;21.068;2022-10-16T04:46:41;14.53;;;11.00;;
5060;SDS011;2549;52.128;21.068;2022-10-16T04:49:08;14.93;;;11.33;;
5060;SDS011;2549;52.128;21.068;2022-10-16T04:51:35;20.33;;;10.53;;
5060;SDS011;2549;52.128;21.068;2022-10-16T04:54:02;22.00;;;11.00;;
5060;SDS011;2549;52.128;21.068;2022-10-16T04:56:29;16.93;;;11.30;;
5060;SDS011;2549;52.128;21.068;2022-10-16T04:58:56;16.60;;;11.43;;
5060;SDS011;2549;52.128;21.068;2022-10-16T05:01:22;17.17;;;10.73;;
5060;SDS011;2549;52.128;21.068;2022-10-16T05:03:49;20.27;;;11.37;;
5060;SDS011;2549;52.128;21.068;2022-10-16T05:06:16;18.80;;;11.73;;
5060;SDS011;2549;52.128;21.068;2022-10-16T05:08:43;17.53;;;11.00;;
5060;SDS011;2549;52.128;21.068;2022-10-16T05:11:10;18.97;;;12.17;;
5060;SDS011;2549;52.128;21.068;2022-10-16T05:13:37;20.80;;;12.20;;
5060;SDS011;2549;52.128;21.068;2022-10-16T05:16:03;20.93;;;12.43;;
5060;SDS011;2549;52.128;21.068;2022-10-16T05:18:30;14.00;;;9.67;;
5060;SDS011;2549;52.128;21.068;2022-10-16T05:20:57;16.07;;;12.03;;
5060;SDS011;2549;52.128;21.068;2022-10-16T05:23:24;18.57;;;11.37;;
5060;SDS011;2549;52.128;21.068;2022-10-16T05:25:51;17.70;;;10.30;;
5060;SDS011;2549;52.128;21.068;2022-10-16T05:28:28;18.87;;;12.40;;
5060;SDS011;2549;52.128;21.068;2022-10-16T05:30:56;16.30;;;11.77;;
5060;SDS011;2549;52.128;21.068;2022-10-16T05:33:24;20.03;;;11.13;;
5060;SDS011;2549;52.128;21.068;2022-10-16T05:35:51;19.70;;;11.03;;
5060;SDS011;2549;52.128;21.068;2022-10-16T05:38:18;17.77;;;11.57;;
5060;SDS011;2549;52.128;21.068;2022-10-16T05:40:51;22.00;;;11.97;;
5060;SDS011;2549;52.128;21.068;2022-10-16T05:43:19;19.03;;;11.40;;
5060;SDS011;2549;52.128;21.068;2022-10-16T05:45:56;15.57;;;10.70;;
5060;SDS011;2549;52.128;21.068;2022-10-16T05:48:32;31.77;;;11.57;;
5060;SDS011;2549;52.128;21.068;2022-10-16T05:51:00;19.77;;;11.97;;
5060;SDS011;2549;52.128;21.068;2022-10-16T05:53:30;16.37;;;10.10;;
5060;SDS011;2549;52.128;21.068;2022-10-16T05:55:58;16.57;;;11.07;;
5060;SDS011;2549;52.128;21.068;2022-10-16T05:58:27;18.13;;;10.50;;
5060;SDS011;2549;52.128;21.068;2022-10-16T06:01:00;15.27;;;10.53;;
5060;SDS011;2549;52.128;21.068;2022-10-16T06:03:31;14.40;;;10.70;;
5060;SDS011;2549;52.128;21.068;2022-10-16T06:06:06;18.47;;;10.27;;
5060;SDS011;2549;52.128;21.068;2022-10-16T06:08:37;13.30;;;10.20;;
5060;SDS011;2549;52.128;21.068;2022-10-16T06:11:06;17.00;;;10.70;;
5060;SDS011;2549;52.128;21.068;2022-10-16T06:13:35;20.30;;;11.67;;
5060;SDS011;2549;52.128;21.068;2022-10-16T06:16:02;16.70;;;10.63;;
5060;SDS011;2549;52.128;21.068;2022-10-16T06:18:29;15.03;;;10.47;;
5060;SDS011;2549;52.128;21.068;2022-10-16T06:20:56;18.23;;;10.90;;
5060;SDS011;2549;52.128;21.068;2022-10-16T06:23:24;16.07;;;10.33;;
5060;SDS011;2549;52.128;21.068;2022-10-16T06:25:51;15.33;;;11.00;;
5060;SDS011;2549;52.128;21.068;2022-10-16T06:28:18;16.00;;;10.97;;
5060;SDS011;2549;52.128;21.068;2022-10-16T06:30:45;18.40;;;10.00;;
5060;SDS011;2549;52.128;21.068;2022-10-16T06:33:12;17.30;;;11.73;;
5060;SDS011;2549;52.128;21.068;2022-10-16T06:35:41;17.53;;;11.20;;
5060;SDS011;2549;52.128;21.068;2022-10-16T06:38:08;16.57;;;10.90;;
5060;SDS011;2549;52.128;21.068;2022-10-16T06:40:35;15.27;;;10.33;;
5060;SDS011;2549;52.128;21.068;2022-10-16T06:43:05;18.80;;;12.03;;
5060;SDS011;2549;52.128;21.068;2022-10-16T06:45:32;16.77;;;9.70;;
5060;SDS011;2549;52.128;21.068;2022-10-16T06:47:58;16.53;;;10.47;;
5060;SDS011;2549;52.128;21.068;2022-10-16T06:50:25;21.13;;;11.07;;
5060;SDS011;2549;52.128;21.068;2022-10-16T06:52:52;16.43;;;10.73;;
5060;SDS011;2549;52.128;21.068;2022-10-16T06:55:19;19.57;;;12.00;;
5060;SDS011;2549;52.128;21.068;2022-10-16T06:57:46;22.30;;;11.33;;
5060;SDS011;2549;52.128;21.068;2022-10-16T07:00:14;16.40;;;10.70;;
5060;SDS011;2549;52.128;21.068;2022-10-16T07:02:41;19.03;;;11.17;;
5060;SDS011;2549;52.128;21.068;2022-10-16T07:05:08;17.87;;;11.30;;
5060;SDS011;2549;52.128;21.068;2022-10-16T07:07:35;16.90;;;11.27;;
5060;SDS011;2549;52.128;21.068;2022-10-16T07:10:02;15.70;;;11.00;;
5060;SDS011;2549;52.128;21.068;2022-10-16T07:12:29;15.10;;;10.70;;
5060;SDS011;2549;52.128;21.068;2022-10-16T07:14:56;14.60;;;10.70;;
5060;SDS011;2549;52.128;21.068;2022-10-16T07:17:23;14.90;;;10.50;;
5060;SDS011;2549;52.128;21.068;2022-10-16T07:19:50;21.73;;;11.30;;
5060;SDS011;2549;52.128;21.068;2022-10-16T07:22:19;19.03;;;10.90;;
5060;SDS011;2549;52.128;21.068;2022-10-16T07:24:46;17.70;;;10.57;;
5060;SDS011;2549;52.128;21.068;2022-10-16T07:27:17;20.83;;;10.70;;
5060;SDS011;2549;52.128;21.068;2022-10-16T07:29:44;15.87;;;10.83;;
5060;SDS011;2549;52.128;21.068;2022-10-16T07:32:11;14.17;;;10.30;;
5060;SDS011;2549;52.128;21.068;2022-10-16T07:34:38;18.90;;;10.80;;
5060;SDS011;2549;52.128;21.068;2022-10-16T07:37:05;20.63;;;10.90;;
5060;SDS011;2549;52.128;21.068;2022-10-16T07:39:32;18.10;;;10.37;;
5060;SDS011;2549;52.128;21.068;2022-10-16T07:41:59;15.27;;;10.30;;
5060;SDS011;2549;52.128;21.068;2022-10-16T07:44:26;15.10;;;10.20;;
5060;SDS011;2549;52.128;21.068;2022-10-16T07:46:53;16.03;;;10.63;;
5060;SDS011;2549;52.128;21.068;2022-10-16T07:49:20;19.90;;;10.83;;
5060;SDS011;2549;52.128;21.068;2022-10-16T07:51:46;20.27;;;9.97;;
5060;SDS011;2549;52.128;21.068;2022-10-16T07:54:13;17.60;;;9.67;;
5060;SDS011;2549;52.128;21.068;2022-10-16T07:56:40;11.50;;;9.40;;
5060;SDS011;2549;52.128;21.068;2022-10-16T07:59:09;16.20;;;9.63;;
5060;SDS011;2549;52.128;21.068;2022-10-16T08:01:36;22.53;;;10.37;;
5060;SDS011;2549;52.128;21.068;2022-10-16T08:04:04;17.03;;;9.83;;
5060;SDS011;2549;52.128;21.068;2022-10-16T08:06:34;17.10;;;10.40;;
5060;SDS011;2549;52.128;21.068;2022-10-16T08:09:03;14.17;;;10.73;;
5060;SDS011;2549;52.128;21.068;2022-10-16T08:11:30;14.50;;;9.77;;
5060;SDS011;2549;52.128;21.068;2022-10-16T08:13:57;18.60;;;9.33;;
5060;SDS011;2549;52.128;21.068;2022-10-16T08:16:23;14.37;;;10.23;;
5060;SDS011;2549;52.128;21.068;2022-10-16T08:18:50;17.70;;;10.27;;
5060;SDS011;2549;52.128;21.068;2022-10-16T08:21:19;14.63;;;10.07;;
5060;SDS011;2549;52.128;21.068;2022-10-16T08:23:47;17.83;;;10.40;;
5060;SDS011;2549;52.128;21.068;2022-10-16T08:26:23;16.90;;;9.60;;
5060;SDS011;2549;52.128;21.068;2022-10-16T08:28:51;12.47;;;8.73;;
5060;SDS011;2549;52.128;21.068;2022-10-16T08:31:18;16.03;;;10.00;;
5060;SDS011;2549;52.128;21.068;2022-10-16T08:33:46;11.03;;;8.30;;
5060;SDS011;2549;52.128;21.068;2022-10-16T08:36:14;11.60;;;9.13;;
5060;SDS011;2549;52.128;21.068;2022-10-16T08:38:42;12.77;;;8.87;;
5060;SDS011;2549;52.128;21.068;2022-10-16T08:49:26;16.93;;;8.80;;
5060;SDS011;2549;52.128;21.068;2022-10-16T08:51:53;13.57;;;9.10;;
5060;SDS011;2549;52.128;21.068;2022-10-16T08:54:42;13.50;;;9.00;;
5060;SDS011;2549;52.128;21.068;2022-10-16T08:57:14;16.00;;;9.17;;
5060;SDS011;2549;52.128;21.068;2022-10-16T08:59:49;12.00;;;8.83;;
5060;SDS011;2549;52.128;21.068;2022-10-16T09:05:11;19.57;;;9.00;;
5060;SDS011;2549;52.128;21.068;2022-10-16T09:08:06;11.47;;;9.00;;
5060;SDS011;2549;52.128;21.068;2022-10-16T09:13:23;13.30;;;8.57;;
5060;SDS011;2549;52.128;21.068;2022-10-16T09:21:15;14.07;;;9.23;;
5060;SDS011;2549;52.128;21.068;2022-10-16T09:23:47;11.07;;;8.40;;
5060;SDS011;2549;52.128;21.068;2022-10-16T09:26:15;13.40;;;10.00;;
5060;SDS011;2549;52.128;21.068;2022-10-16T09:28:44;14.73;;;8.60;;
5060;SDS011;2549;52.128;21.068;2022-10-16T09:31:13;14.00;;;8.97;;
5060;SDS011;2549;52.128;21.068;2022-10-16T09:33:43;14.00;;;9.13;;
5060;SDS011;2549;52.128;21.068;2022-10-16T09:36:14;16.17;;;8.30;;
5060;SDS011;2549;52.128;21.068;2022-10-16T09:38:41;9.33;;;8.30;;
5060;SDS011;2549;52.128;21.068;2022-10-16T09:41:19;14.57;;;8.80;;
5060;SDS011;2549;52.128;21.068;2022-10-16T09:43:59;14.80;;;8.67;;
5060;SDS011;2549;52.128;21.068;2022-10-16T09:46:31;12.73;;;8.47;;
5060;SDS011;2549;52.128;21.068;2022-10-16T09:49:04;12.13;;;9.20;;
5060;SDS011;2549;52.128;21.068;2022-10-16T09:51:46;11.83;;;8.10;;
5060;SDS011;2549;52.128;21.068;2022-10-16T09:54:14;11.67;;;8.33;;
5060;SDS011;2549;52.128;21.068;2022-10-16T09:56:46;10.53;;;8.13;;
5060;SDS011;2549;52.128;21.068;2022-10-16T09:59:18;17.20;;;8.80;;
5060;SDS011;2549;52.128;21.068;2022-10-16T10:04:18;12.50;;;8.90;;
5060;SDS011;2549;52.128;21.068;2022-10-16T10:06:47;16.83;;;8.50;;
5060;SDS011;2549;52.128;21.068;2022-10-16T10:09:37;14.43;;;9.17;;
5060;SDS011;2549;52.128;21.068;2022-10-16T10:12:06;13.60;;;8.70;;
5060;SDS011;2549;52.128;21.068;2022-10-16T10:14:58;10.70;;;8.17;;
5060;SDS011;2549;52.128;21.068;2022-10-16T10:17:54;17.80;;;8.93;;
5060;SDS011;2549;52.128;21.068;2022-10-16T10:22:49;12.27;;;8.20;;
5060;SDS011;2549;52.128;21.068;2022-10-16T10:25:20;9.90;;;8.53;;
5060;SDS011;2549;52.128;21.068;2022-10-16T10:36:37;17.23;;;9.10;;
5060;SDS011;2549;52.128;21.068;2022-10-16T10:39:23;10.33;;;7.27;;
5060;SDS011;2549;52.128;21.068;2022-10-16T10:42:31;18.20;;;8.50;;
5060;SDS011;2549;52.128;21.068;2022-10-16T10:53:23;11.23;;;7.33;;
5060;SDS011;2549;52.128;21.068;2022-10-16T10:56:16;16.33;;;8.77;;
5060;SDS011;2549;52.128;21.068;2022-10-16T10:59:08;8.33;;;7.50;;
5060;SDS011;2549;52.128;21.068;2022-10-16T11:01:55;11.27;;;8.73;;
5060;SDS011;2549;52.128;21.068;2022-10-16T11:04:33;11.07;;;7.73;;
5060;SDS011;2549;52.128;21.068;2022-10-16T11:07:09;13.37;;;7.57;;
5060;SDS011;2549;52.128;21.068;2022-10-16T11:10:13;10.73;;;7.87;;
5060;SDS011;2549;52.128;21.068;2022-10-16T11:12:46;18.57;;;8.13;;
5060;SDS011;2549;52.128;21.068;2022-10-16T11:15:27;11.43;;;7.77;;
5060;SDS011;2549;52.128;21.068;2022-10-16T11:18:08;10.60;;;7.43;;
5060;SDS011;2549;52.128;21.068;2022-10-16T11:20:42;10.10;;;7.47;;
5060;SDS011;2549;52.128;21.068;2022-10-16T11:24:14;8.60;;;7.17;;
5060;SDS011;2549;52.128;21.068;2022-10-16T11:26:39;13.60;;;7.57;;
5060;SDS011;2549;52.128;21.068;2022-10-16T11:29:13;8.50;;;7.37;;
5060;SDS011;2549;52.128;21.068;2022-10-16T11:31:55;17.63;;;8.30;;
5060;SDS011;2549;52.128;21.068;2022-10-16T11:34:31;11.17;;;6.70;;
5060;SDS011;2549;52.128;21.068;2022-10-16T11:43:12;10.43;;;6.90;;
5060;SDS011;2549;52.128;21.068;2022-10-16T11:45:46;9.17;;;6.53;;
5060;SDS011;2549;52.128;21.068;2022-10-16T11:50:56;14.63;;;7.70;;
5060;SDS011;2549;52.128;21.068;2022-10-16T11:53:46;8.33;;;7.40;;
5060;SDS011;2549;52.128;21.068;2022-10-16T11:56:22;9.40;;;7.27;;
5060;SDS011;2549;52.128;21.068;2022-10-16T11:59:03;7.50;;;6.70;;
5060;SDS011;2549;52.128;21.068;2022-10-16T12:04:43;9.67;;;7.30;;
5060;SDS011;2549;52.128;21.068;2022-10-16T12:07:19;14.00;;;7.70;;
5060;SDS011;2549;52.128;21.068;2022-10-16T12:09:53;8.30;;;6.87;;
5060;SDS011;2549;52.128;21.068;2022-10-16T12:12:43;19.23;;;8.20;;
5060;SDS011;2549;52.128;21.068;2022-10-16T12:18:07;8.63;;;7.30;;
5060;SDS011;2549;52.128;21.068;2022-10-16T12:20:56;8.40;;;7.13;;
5060;SDS011;2549;52.128;21.068;2022-10-16T12:23:37;9.50;;;6.40;;
5060;SDS011;2549;52.128;21.068;2022-10-16T12:26:05;8.70;;;6.37;;
5060;SDS011;2549;52.128;21.068;2022-10-16T12:28:32;8.50;;;6.80;;
5060;SDS011;2549;52.128;21.068;2022-10-16T12:31:04;11.03;;;7.83;;
5060;SDS011;2549;52.128;21.068;2022-10-16T12:33:33;9.10;;;6.30;;
5060;SDS011;2549;52.128;21.068;2022-10-16T12:36:03;12.30;;;6.87;;
5060;SDS011;2549;52.128;21.068;2022-10-16T12:38:52;8.60;;;6.57;;
5060;SDS011;2549;52.128;21.068;2022-10-16T12:41:24;14.23;;;6.50;;
5060;SDS011;2549;52.128;21.068;2022-10-16T12:44:02;12.53;;;6.63;;
5060;SDS011;2549;52.128;21.068;2022-10-16T12:49:56;9.80;;;7.60;;
5060;SDS011;2549;52.128;21.068;2022-10-16T12:51:54;11.13;;;6.23;;
5060;SDS011;2549;52.128;21.068;2022-10-16T12:54:29;9.57;;;7.20;;
5060;SDS011;2549;52.128;21.068;2022-10-16T13:05:46;10.87;;;7.70;;
5060;SDS011;2549;52.128;21.068;2022-10-16T13:17:02;9.83;;;6.90;;
5060;SDS011;2549;52.128;21.068;2022-10-16T13:28:00;7.30;;;5.83;;
5060;SDS011;2549;52.128;21.068;2022-10-16T13:30:29;11.43;;;6.10;;
5060;SDS011;2549;52.128;21.068;2022-10-16T13:33:46;9.27;;;6.67;;
5060;SDS011;2549;52.128;21.068;2022-10-16T13:36:06;6.80;;;6.10;;
5060;SDS011;2549;52.128;21.068;2022-10-16T13:38:34;8.67;;;6.67;;
5060;SDS011;2549;52.128;21.068;2022-10-16T13:41:03;7.10;;;5.90;;
5060;SDS011;2549;52.128;21.068;2022-10-16T13:43:35;8.43;;;6.20;;
5060;SDS011;2549;52.128;21.068;2022-10-16T13:46:26;13.37;;;6.23;;
5060;SDS011;2549;52.128;21.068;2022-10-16T13:48:56;7.10;;;5.83;;
5060;SDS011;2549;52.128;21.068;2022-10-16T13:51:26;12.63;;;6.90;;
5060;SDS011;2549;52.128;21.068;2022-10-16T13:53:54;11.40;;;7.50;;
5060;SDS011;2549;52.128;21.068;2022-10-16T13:56:27;7.03;;;6.40;;
5060;SDS011;2549;52.128;21.068;2022-10-16T13:59:02;8.67;;;6.40;;
5060;SDS011;2549;52.128;21.068;2022-10-16T14:01:32;8.70;;;5.60;;
5060;SDS011;2549;52.128;21.068;2022-10-16T14:04:07;8.00;;;6.17;;
5060;SDS011;2549;52.128;21.068;2022-10-16T14:06:36;9.90;;;6.80;;
5060;SDS011;2549;52.128;21.068;2022-10-16T14:09:09;8.83;;;6.50;;
5060;SDS011;2549;52.128;21.068;2022-10-16T14:11:51;17.23;;;7.73;;
5060;SDS011;2549;52.128;21.068;2022-10-16T14:14:38;10.90;;;7.50;;
5060;SDS011;2549;52.128;21.068;2022-10-16T14:19:56;10.60;;;6.70;;
5060;SDS011;2549;52.128;21.068;2022-10-16T14:25:24;9.43;;;6.90;;
5060;SDS011;2549;52.128;21.068;2022-10-16T14:28:14;9.37;;;7.67;;
5060;SDS011;2549;52.128;21.068;2022-10-16T14:30:53;7.47;;;6.20;;
5060;SDS011;2549;52.128;21.068;2022-10-16T14:33:21;8.37;;;6.90;;
5060;SDS011;2549;52.128;21.068;2022-10-16T14:38:30;8.33;;;6.90;;
5060;SDS011;2549;52.128;21.068;2022-10-16T14:40:58;10.47;;;7.27;;
5060;SDS011;2549;52.128;21.068;2022-10-16T14:43:32;8.53;;;6.43;;
5060;SDS011;2549;52.128;21.068;2022-10-16T14:46:00;12.37;;;6.80;;
5060;SDS011;2549;52.128;21.068;2022-10-16T14:48:29;13.77;;;7.03;;
5060;SDS011;2549;52.128;21.068;2022-10-16T14:50:56;8.77;;;7.87;;
5060;SDS011;2549;52.128;21.068;2022-10-16T14:53:23;21.37;;;7.93;;
5060;SDS011;2549;52.128;21.068;2022-10-16T14:55:50;10.43;;;7.67;;
5060;SDS011;2549;52.128;21.068;2022-10-16T14:58:19;8.97;;;7.43;;
5060;SDS011;2549;52.128;21.068;2022-10-16T15:00:48;7.67;;;6.87;;
5060;SDS011;2549;52.128;21.068;2022-10-16T15:03:15;11.23;;;7.43;;
5060;SDS011;2549;52.128;21.068;2022-10-16T15:05:42;9.60;;;7.83;;
5060;SDS011;2549;52.128;21.068;2022-10-16T15:08:09;7.90;;;7.03;;
5060;SDS011;2549;52.128;21.068;2022-10-16T15:10:42;11.10;;;8.10;;
5060;SDS011;2549;52.128;21.068;2022-10-16T15:13:13;11.03;;;7.87;;
5060;SDS011;2549;52.128;21.068;2022-10-16T15:15:44;9.60;;;6.00;;
5060;SDS011;2549;52.128;21.068;2022-10-16T15:18:12;16.00;;;8.30;;
5060;SDS011;2549;52.128;21.068;2022-10-16T15:20:41;12.20;;;7.40;;
5060;SDS011;2549;52.128;21.068;2022-10-16T15:23:15;12.70;;;7.77;;
5060;SDS011;2549;52.128;21.068;2022-10-16T15:25:49;10.03;;;6.53;;
5060;SDS011;2549;52.128;21.068;2022-10-16T15:28:17;10.70;;;7.60;;
5060;SDS011;2549;52.128;21.068;2022-10-16T15:30:46;28.10;;;8.60;;
5060;SDS011;2549;52.128;21.068;2022-10-16T15:33:16;11.73;;;9.07;;
5060;SDS011;2549;52.128;21.068;2022-10-16T15:35:49;8.90;;;8.00;;
5060;SDS011;2549;52.128;21.068;2022-10-16T15:38:18;8.47;;;7.20;;
5060;SDS011;2549;52.128;21.068;2022-10-16T15:40:46;21.47;;;7.70;;
5060;SDS011;2549;52.128;21.068;2022-10-16T15:43:14;9.30;;;7.43;;
5060;SDS011;2549;52.128;21.068;2022-10-16T15:45:40;10.00;;;7.87;;
5060;SDS011;2549;52.128;21.068;2022-10-16T15:48:11;9.60;;;8.03;;
5060;SDS011;2549;52.128;21.068;2022-10-16T15:50:40;15.13;;;8.60;;
5060;SDS011;2549;52.128;21.068;2022-10-16T15:53:13;21.30;;;8.60;;
5060;SDS011;2549;52.128;21.068;2022-10-16T15:55:40;10.93;;;7.50;;
5060;SDS011;2549;52.128;21.068;2022-10-16T15:58:06;11.40;;;8.10;;
5060;SDS011;2549;52.128;21.068;2022-10-16T16:00:33;17.30;;;8.50;;
5060;SDS011;2549;52.128;21.068;2022-10-16T16:03:00;10.60;;;8.00;;
5060;SDS011;2549;52.128;21.068;2022-10-16T16:05:27;16.50;;;9.33;;
5060;SDS011;2549;52.128;21.068;2022-10-16T16:07:55;11.40;;;8.37;;
5060;SDS011;2549;52.128;21.068;2022-10-16T16:10:22;11.83;;;9.13;;
5060;SDS011;2549;52.128;21.068;2022-10-16T16:12:49;11.57;;;8.20;;
5060;SDS011;2549;52.128;21.068;2022-10-16T16:15:19;11.03;;;8.30;;
5060;SDS011;2549;52.128;21.068;2022-10-16T16:17:48;14.83;;;8.30;;
5060;SDS011;2549;52.128;21.068;2022-10-16T16:20:15;12.80;;;9.43;;
5060;SDS011;2549;52.128;21.068;2022-10-16T16:22:42;14.30;;;9.13;;
5060;SDS011;2549;52.128;21.068;2022-10-16T16:25:09;15.20;;;8.43;;
5060;SDS011;2549;52.128;21.068;2022-10-16T16:27:36;13.40;;;8.57;;
5060;SDS011;2549;52.128;21.068;2022-10-16T16:30:09;13.97;;;9.63;;
5060;SDS011;2549;52.128;21.068;2022-10-16T16:32:44;17.73;;;9.47;;
5060;SDS011;2549;52.128;21.068;2022-10-16T16:35:11;13.13;;;9.60;;
5060;SDS011;2549;52.128;21.068;2022-10-16T16:37:38;14.27;;;9.90;;
5060;SDS011;2549;52.128;21.068;2022-10-16T16:40:05;14.50;;;9.20;;
5060;SDS011;2549;52.128;21.068;2022-10-16T16:42:32;13.37;;;9.27;;
5060;SDS011;2549;52.128;21.068;2022-10-16T16:44:59;14.17;;;10.40;;
5060;SDS011;2549;52.128;21.068;2022-10-16T16:47:26;17.20;;;10.50;;
5060;SDS011;2549;52.128;21.068;2022-10-16T16:49:53;17.77;;;9.67;;